Time;durP1;ratioP1;P1;durP2;ratioP2;P2;SDS_P1;SDS_P2;PMS_P1;PMS_P2;Temp;Humidity;BMP_temperature;BMP_pressure;BME280_temperature;BME280_humidity;BME280_pressure;Samples;Min_cycle;Max_cycle;Signal;HPM_P1;HPM_P2
2022/04/01 00:00:22;;;;;;;6.00;4.97;;;;;;;5.95;58.61;100170.94;5073610;28;20029;-66
2022/04/01 00:02:49;;;;;;;4.90;4.40;;;;;;;5.93;58.52;100175.47;5072436;28;20108;-66
2022/04/01 00:05:15;;;;;;;8.02;4.85;;;;;;;5.93;58.71;100179.94;5073279;28;20048;-65
2022/04/01 00:07:42;;;;;;;7.40;4.43;;;;;;;5.90;58.58;100172.13;5073244;28;20050;-66
2022/04/01 00:10:09;;;;;;;5.40;4.35;;;;;;;5.89;58.59;100178.38;5073335;28;20048;-66
2022/04/01 00:12:40;;;;;;;4.72;4.20;;;;;;;5.87;58.69;100190.94;5073351;28;20448;-66
2022/04/01 00:15:09;;;;;;;6.03;4.43;;;;;;;5.85;58.83;100182.19;5073502;28;20044;-65
2022/04/01 00:17:36;;;;;;;5.18;4.68;;;;;;;5.81;58.67;100199.31;5072943;28;20110;-65
2022/04/01 00:20:03;;;;;;;6.53;4.55;;;;;;;5.79;58.71;100193.22;5073654;28;20108;-66
2022/04/01 00:22:30;;;;;;;5.40;4.30;;;;;;;5.76;58.78;100194.28;5073336;28;20041;-67
2022/04/01 00:24:57;;;;;;;6.20;4.50;;;;;;;5.74;59.08;100197.03;5073059;28;20464;-66
2022/04/01 00:27:24;;;;;;;5.13;4.47;;;;;;;5.73;58.91;100205.97;5073215;28;20051;-66
2022/04/01 00:29:51;;;;;;;5.95;4.35;;;;;;;5.72;59.04;100190.94;5055355;28;20098;-67
2022/04/01 00:32:18;;;;;;;5.30;3.83;;;;;;;5.70;58.89;100197.31;5055267;28;20093;-66
2022/04/01 00:34:45;;;;;;;5.22;4.38;;;;;;;5.68;58.99;100194.75;5072840;28;20043;-66
2022/04/01 00:37:12;;;;;;;6.97;4.53;;;;;;;5.69;58.96;100198.28;5073157;28;20068;-67
2022/04/01 00:39:39;;;;;;;6.45;4.43;;;;;;;5.69;59.04;100190.28;5055059;28;20051;-66
2022/04/01 00:42:06;;;;;;;5.47;4.40;;;;;;;5.67;59.04;100194.84;5055218;28;20036;-65
2022/04/01 00:44:35;;;;;;;8.27;4.80;;;;;;;5.64;59.27;100193.22;5054844;28;20045;-66
2022/04/01 00:47:14;;;;;;;4.45;3.50;;;;;;;5.63;59.11;100204.84;5073131;28;20090;-66
2022/04/01 00:49:42;;;;;;;5.82;3.92;;;;;;;5.62;59.05;100205.78;5071596;28;20036;-67
2022/04/01 00:52:15;;;;;;;8.65;4.35;;;;;;;5.59;59.16;100205.13;5067344;28;20069;-66
2022/04/01 00:54:44;;;;;;;5.53;4.18;;;;;;;5.57;59.10;100205.22;5052262;28;20155;-67
2022/04/01 00:57:13;;;;;;;8.38;4.20;;;;;;;5.59;59.17;100202.44;5073148;28;20037;-66
2022/04/01 00:59:42;;;;;;;6.05;4.45;;;;;;;5.58;59.19;100204.25;5073492;28;20131;-67
2022/04/01 01:02:08;;;;;;;4.72;3.97;;;;;;;5.57;59.17;100205.22;5055008;28;20498;-66
2022/04/01 01:04:36;;;;;;;6.80;4.93;;;;;;;5.57;59.29;100210.53;5072778;28;20536;-66
2022/04/01 01:07:04;;;;;;;6.13;4.10;;;;;;;5.56;59.39;100215.94;5076664;28;20393;-67
2022/04/01 01:09:37;;;;;;;5.28;4.25;;;;;;;5.57;59.29;100217.66;5076575;28;20154;-66
2022/04/01 01:12:06;;;;;;;5.10;4.10;;;;;;;5.58;59.38;100217.56;5077246;28;20040;-65
2022/04/01 01:14:36;;;;;;;4.85;4.32;;;;;;;5.58;59.52;100203.41;5059018;28;20131;-67
2022/04/01 01:17:06;;;;;;;7.40;3.92;;;;;;;5.58;59.31;100209.59;5058586;28;20517;-67
2022/04/01 01:19:32;;;;;;;4.32;3.92;;;;;;;5.59;59.57;100218.44;5076661;28;20115;-66
2022/04/01 01:21:59;;;;;;;6.05;4.40;;;;;;;5.58;59.55;100219.38;5057625;28;20083;-67
2022/04/01 01:24:29;;;;;;;6.20;4.07;;;;;;;5.57;59.63;100223.00;5075548;28;20045;-67
2022/04/01 01:26:55;;;;;;;4.88;3.80;;;;;;;5.58;59.21;100217.56;5058620;28;20032;-66
2022/04/01 01:29:26;;;;;;;5.38;3.90;;;;;;;5.56;59.49;100218.63;5076423;28;20549;-66
2022/04/01 01:32:00;;;;;;;5.25;3.90;;;;;;;5.55;59.44;100220.41;5076503;28;20044;-67
2022/04/01 01:34:28;;;;;;;4.35;3.95;;;;;;;5.54;59.58;100216.03;5076310;28;20047;-66
2022/04/01 01:36:56;;;;;;;4.65;3.90;;;;;;;5.52;59.59;100217.09;5076456;28;20102;-66
2022/04/01 01:39:23;;;;;;;5.47;4.53;;;;;;;5.51;59.68;100223.38;5075986;28;20040;-66
2022/04/01 01:41:50;;;;;;;5.53;4.10;;;;;;;5.50;59.66;100213.66;5058044;28;20049;-67
2022/04/01 01:44:18;;;;;;;4.47;4.05;;;;;;;5.51;59.65;100213.56;5076211;28;20102;-67
2022/04/01 01:46:45;;;;;;;4.10;3.67;;;;;;;5.52;59.45;100217.09;5076178;28;20064;-66
2022/04/01 01:49:11;;;;;;;4.75;3.83;;;;;;;5.53;59.71;100217.00;5058150;28;20409;-66
2022/04/01 01:54:43;;;;;;;6.47;3.90;;;;;;;5.54;59.70;100220.50;5075801;28;20063;-67
2022/04/01 01:57:18;;;;;;;3.65;3.35;;;;;;;5.54;59.76;100228.50;5075490;28;20398;-66
2022/04/01 01:59:45;;;;;;;5.22;4.18;;;;;;;5.53;59.71;100222.31;5057468;28;20068;-67
2022/04/01 02:02:11;;;;;;;5.25;4.25;;;;;;;5.50;59.70;100229.63;5053248;28;20407;-66
2022/04/01 02:04:41;;;;;;;6.07;3.92;;;;;;;5.50;59.62;100230.50;5060429;28;20123;-66
2022/04/01 02:07:09;;;;;;;7.28;3.97;;;;;;;5.50;59.72;100235.81;5076090;28;20474;-66
2022/04/01 02:09:36;;;;;;;6.05;4.32;;;;;;;5.52;59.49;100243.72;5074174;28;20059;-66
2022/04/01 02:12:04;;;;;;;4.80;4.13;;;;;;;5.53;59.78;100240.09;5075155;28;20032;-66
2022/04/01 02:14:30;;;;;;;6.13;4.15;;;;;;;5.51;59.86;100242.84;5075740;28;20048;-67
2022/04/01 02:17:00;;;;;;;4.63;4.13;;;;;;;5.50;59.70;100253.59;5056901;28;20044;-66
2022/04/01 02:19:27;;;;;;;5.65;3.72;;;;;;;5.49;59.81;100244.75;5057426;28;20048;-66
2022/04/01 02:21:54;;;;;;;5.82;4.28;;;;;;;5.49;59.85;100249.22;5060939;28;20033;-65
2022/04/01 02:24:22;;;;;;;5.18;4.40;;;;;;;5.47;59.74;100254.66;5078833;28;20055;-66
2022/04/01 02:26:51;;;;;;;7.22;4.40;;;;;;;5.45;59.81;100259.22;5041312;28;20037;-66
2022/04/01 02:29:19;;;;;;;5.97;4.32;;;;;;;5.44;59.72;100260.16;5073891;28;20041;-66
2022/04/01 02:32:09;;;;;;;4.75;4.25;;;;;;;5.43;59.72;100255.78;5039473;28;20059;-66
2022/04/01 02:34:56;;;;;;;6.20;4.63;;;;;;;5.43;59.89;100255.78;5067665;28;20048;-67
2022/04/01 02:37:25;;;;;;;4.90;4.05;;;;;;;5.45;59.99;100266.34;5037697;28;20045;-66
2022/04/01 02:39:55;;;;;;;4.55;4.03;;;;;;;5.45;59.85;100264.53;5057544;28;20052;-67
2022/04/01 02:42:26;;;;;;;5.43;4.20;;;;;;;5.45;59.82;100264.53;5057227;28;20102;-66
2022/04/01 02:44:53;;;;;;;5.63;4.28;;;;;;;5.45;59.93;100264.53;5056704;28;20056;-67
2022/04/01 02:47:20;;;;;;;4.63;4.10;;;;;;;5.46;59.98;100268.91;5046665;28;20471;-66
2022/04/01 02:49:48;;;;;;;5.82;4.65;;;;;;;5.46;59.97;100265.38;5058240;28;20047;-67
2022/04/01 02:52:14;;;;;;;5.80;3.95;;;;;;;5.45;59.95;100274.31;5073324;28;20517;-66
2022/04/01 02:54:42;;;;;;;6.97;4.68;;;;;;;5.44;59.93;100270.81;5073640;28;20048;-67
2022/04/01 02:57:09;;;;;;;4.72;4.20;;;;;;;5.44;60.09;100289.44;5073526;28;20051;-67
2022/04/01 02:59:37;;;;;;;5.28;4.72;;;;;;;5.43;59.95;100287.72;5057165;28;20056;-67
2022/04/01 03:02:05;;;;;;;5.90;4.22;;;;;;;5.41;60.06;100289.63;5038947;28;20052;-67
2022/04/01 03:04:33;;;;;;;5.97;4.88;;;;;;;5.41;59.89;100295.81;5056352;28;20048;-67
2022/04/01 03:07:01;;;;;;;4.95;4.53;;;;;;;5.43;60.01;100299.25;5056597;28;20064;-66
2022/04/01 03:09:30;;;;;;;6.82;5.10;;;;;;;5.42;59.90;100286.88;5056497;28;20040;-67
2022/04/01 03:12:17;;;;;;;5.90;4.65;;;;;;;5.41;60.07;100294.94;5074088;28;20117;-67
2022/04/01 03:14:50;;;;;;;5.82;5.07;;;;;;;5.39;60.01;100308.34;5073417;28;20057;-66
2022/04/01 03:17:35;;;;;;;6.13;5.13;;;;;;;5.39;59.98;100302.16;5074149;28;20040;-67
2022/04/01 03:20:25;;;;;;;7.43;5.35;;;;;;;5.37;60.12;100312.91;5063346;28;20071;-66
2022/04/01 03:22:53;;;;;;;7.00;5.53;;;;;;;5.38;60.12;100313.78;5056069;28;20555;-66
2022/04/01 03:25:32;;;;;;;6.63;5.53;;;;;;;5.37;60.19;100315.56;5056560;28;20045;-67
2022/04/01 03:28:13;;;;;;;7.03;5.70;;;;;;;5.36;60.03;100321.00;5057653;28;20053;-66
2022/04/01 03:30:42;;;;;;;6.30;5.70;;;;;;;5.35;60.10;100324.59;5056011;28;20044;-66
2022/04/01 03:33:10;;;;;;;6.70;6.03;;;;;;;5.33;60.29;100323.81;5057112;28;20098;-67
2022/04/01 03:35:37;;;;;;;8.60;6.80;;;;;;;5.32;60.06;100328.28;5056218;28;20440;-67
2022/04/01 03:38:10;;;;;;;7.60;6.20;;;;;;;5.32;60.15;100330.09;5055898;28;20055;-67
2022/04/01 03:40:40;;;;;;;7.75;6.30;;;;;;;5.34;60.21;100328.22;5056098;28;20132;-67
2022/04/01 03:43:08;;;;;;;7.55;6.45;;;;;;;5.34;60.27;100331.72;5057758;28;20047;-67
2022/04/01 03:45:35;;;;;;;7.70;6.60;;;;;;;5.34;60.20;100330.88;5058169;28;20045;-67
2022/04/01 03:48:20;;;;;;;6.95;6.25;;;;;;;5.33;60.30;100339.81;5055954;28;20052;-67
2022/04/01 03:50:53;;;;;;;7.97;6.45;;;;;;;5.33;60.12;100339.81;5055758;28;20045;-68
2022/04/01 03:53:27;;;;;;;8.23;6.93;;;;;;;5.33;60.30;100350.47;5061239;28;20037;-67
2022/04/01 03:55:56;;;;;;;8.07;7.03;;;;;;;5.30;60.34;100351.50;5055790;28;20069;-67
2022/04/01 03:58:46;;;;;;;6.55;5.85;;;;;;;5.31;60.25;100341.69;5073985;28;20434;-67
2022/04/01 04:01:34;;;;;;;7.88;6.25;;;;;;;5.28;60.28;100352.53;5073890;28;20054;-66
2022/04/01 04:04:01;;;;;;;6.45;5.85;;;;;;;5.27;60.37;100349.00;5055228;28;20048;-66
2022/04/01 04:06:28;;;;;;;8.20;6.60;;;;;;;5.28;60.39;100357.84;5063695;28;20082;-66
2022/04/01 04:08:57;;;;;;;7.97;6.30;;;;;;;5.28;60.28;100363.16;5073485;28;20109;-67
2022/04/01 04:11:28;;;;;;;7.35;5.68;;;;;;;5.28;60.44;100372.03;5055325;28;20041;-66
2022/04/01 04:14:06;;;;;;;8.63;6.40;;;;;;;5.28;60.35;100376.47;5055387;28;20044;-67
2022/04/01 04:16:47;;;;;;;9.85;5.75;;;;;;;5.27;60.26;100366.78;5023294;28;20040;-66
2022/04/01 04:19:24;;;;;;;8.82;6.25;;;;;;;5.27;60.23;100380.94;5051858;28;20049;-67
2022/04/01 04:22:13;;;;;;;5.85;5.25;;;;;;;5.26;60.47;100389.88;5042355;28;20040;-66
2022/04/01 04:25:00;;;;;;;6.30;5.60;;;;;;;5.29;60.28;100387.03;5047962;28;20060;-67
2022/04/01 04:27:29;;;;;;;6.45;5.53;;;;;;;5.29;60.35;100384.38;5046193;28;20099;-66
2022/04/01 04:30:08;;;;;;;7.05;5.68;;;;;;;5.28;60.35;100401.31;5051902;28;20083;-66
2022/04/01 04:32:56;;;;;;;6.80;5.90;;;;;;;5.26;60.24;100395.22;5071998;28;20068;-66
2022/04/01 04:35:28;;;;;;;6.40;5.63;;;;;;;5.26;60.23;100397.00;5055255;28;20131;-67
2022/04/01 04:37:57;;;;;;;6.70;6.05;;;;;;;5.26;60.30;100405.84;5054583;28;20052;-66
2022/04/01 04:40:25;;;;;;;7.18;5.75;;;;;;;5.26;59.94;100416.50;5071376;28;20036;-67
2022/04/01 04:43:10;;;;;;;6.50;5.80;;;;;;;5.25;60.13;100412.13;5055027;28;20040;-67
2022/04/01 04:45:37;;;;;;;7.72;6.20;;;;;;;5.26;60.20;100419.16;5072971;28;20048;-67
2022/04/01 04:48:05;;;;;;;6.93;6.20;;;;;;;5.25;60.20;100417.44;5054723;28;20064;-67
2022/04/01 04:50:32;;;;;;;9.10;7.38;;;;;;;5.27;60.26;100414.69;5051482;28;20449;-66
2022/04/01 04:52:59;;;;;;;9.73;6.80;;;;;;;5.25;60.39;100430.75;5062909;28;20403;-67
2022/04/01 04:55:26;;;;;;;8.80;7.18;;;;;;;5.25;60.25;100429.91;5054744;28;20045;-67
2022/04/01 04:58:08;;;;;;;8.85;7.38;;;;;;;5.25;60.38;100433.44;5060919;28;20118;-66
2022/04/01 05:00:45;;;;;;;9.18;8.15;;;;;;;5.26;60.53;100434.28;5071716;28;20098;-67
2022/04/01 05:03:44;;;;;;;8.38;6.93;;;;;;;5.25;60.18;100440.56;5058056;28;20048;-66
2022/04/01 05:06:12;;;;;;;8.27;7.05;;;;;;;5.25;60.61;100443.22;5066315;28;20052;-67
2022/04/01 05:09:21;;;;;;;8.32;7.05;;;;;;;5.23;60.18;100442.44;5052668;28;20088;-67
2022/04/01 05:12:11;;;;;;;8.02;5.95;;;;;;;5.22;60.19;100454.03;5039521;28;20040;-68
2022/04/01 05:14:59;;;;;;;7.85;6.22;;;;;;;5.21;60.21;100462.97;5073196;28;20094;-67
2022/04/01 05:17:35;;;;;;;8.55;6.53;;;;;;;5.20;60.28;100462.09;5063874;28;20455;-68
2022/04/01 05:20:11;;;;;;;8.50;6.50;;;;;;;5.22;60.01;100464.69;5055005;28;20050;-68
2022/04/01 05:22:58;;;;;;;7.93;6.55;;;;;;;5.21;60.20;100462.97;5038340;28;20041;-68
2022/04/01 05:25:30;;;;;;;7.65;6.38;;;;;;;5.21;60.27;100468.28;5054634;28;20544;-68
2022/04/01 05:28:01;;;;;;;8.05;6.72;;;;;;;5.21;60.20;100481.59;5054539;28;20044;-67
2022/04/01 05:30:39;;;;;;;8.07;6.80;;;;;;;5.20;60.11;100483.41;5072876;28;20112;-67
2022/04/01 05:33:15;;;;;;;8.70;6.60;;;;;;;5.19;59.99;100486.97;5038675;28;20047;-66
2022/04/01 05:35:44;;;;;;;7.65;6.45;;;;;;;5.18;59.94;100481.72;5071585;28;20135;-66
2022/04/01 05:38:12;;;;;;;9.38;7.30;;;;;;;5.17;60.05;100488.00;5054910;28;20048;-67
2022/04/01 05:40:39;;;;;;;8.60;6.78;;;;;;;5.15;60.08;100495.22;5072238;28;20040;-67
2022/04/01 05:43:10;;;;;;;9.50;6.88;;;;;;;5.15;60.22;100506.72;5054523;28;20037;-68
2022/04/01 05:45:40;;;;;;;9.98;7.20;;;;;;;5.14;60.34;100498.81;5054716;28;20037;-67
2022/04/01 05:48:12;;;;;;;7.63;6.55;;;;;;;5.16;60.09;100511.09;5054199;28;20072;-68
2022/04/01 05:50:39;;;;;;;8.52;5.75;;;;;;;5.16;60.10;100520.88;5054076;28;20534;-68
2022/04/01 05:53:07;;;;;;;7.45;6.45;;;;;;;5.18;59.84;100524.31;5072621;28;20040;-67
2022/04/01 05:55:46;;;;;;;8.13;6.32;;;;;;;5.17;60.12;100533.25;5057230;28;20544;-68
2022/04/01 05:58:13;;;;;;;6.50;5.50;;;;;;;5.19;60.05;100521.59;5057273;28;20490;-67
2022/04/01 06:01:09;;;;;;;7.28;6.35;;;;;;;5.19;60.10;100520.72;5056541;28;20037;-68
2022/04/01 06:04:09;;;;;;;8.35;6.70;;;;;;;5.19;59.90;100523.38;5053308;28;20037;-67
2022/04/01 06:06:40;;;;;;;10.68;6.32;;;;;;;5.18;59.94;100527.84;5038426;28;20041;-68
2022/04/01 06:09:26;;;;;;;6.88;6.18;;;;;;;5.15;59.82;100543.13;5056965;28;20041;-67
2022/04/01 06:12:46;;;;;;;6.43;5.72;;;;;;;5.11;59.85;100540.63;5057426;28;20056;-67
2022/04/01 06:16:01;;;;;;;7.13;6.20;;;;;;;5.09;59.87;100553.16;5058161;28;20051;-67
2022/04/01 06:19:16;;;;;;;6.55;5.50;;;;;;;5.07;59.82;100564.81;5074654;28;20151;-68
2022/04/01 06:21:47;;;;;;;;;;;;;;;5.05;59.83;100567.56;5047896;28;20064;-67
2022/04/01 06:24:20;;;;;;;6.75;5.63;;;;;;;5.09;59.76;100570.94;5048877;28;19933;-68
2022/04/01 06:26:54;;;;;;;6.63;5.32;;;;;;;5.07;59.71;100579.00;5056746;28;20051;-67
2022/04/01 06:29:41;;;;;;;5.78;4.88;;;;;;;5.06;59.77;100582.59;5051395;28;20045;-68
2022/04/01 06:32:20;;;;;;;7.03;5.22;;;;;;;5.05;59.82;100583.53;5075018;28;20405;-64
2022/04/01 06:35:03;;;;;;;6.55;5.07;;;;;;;5.05;59.75;100588.00;5074302;28;20086;-65
2022/04/01 06:38:05;;;;;;;6.80;5.15;;;;;;;5.04;59.72;100595.13;5053708;28;20037;-64
2022/04/01 06:40:53;;;;;;;7.88;5.07;;;;;;;5.04;59.78;100597.78;5056417;28;20047;-66
2022/04/01 06:43:26;;;;;;;5.55;4.60;;;;;;;5.07;59.66;100604.75;5057026;28;20045;-66
2022/04/01 06:46:11;;;;;;;5.93;4.53;;;;;;;5.07;59.91;100610.06;5075606;28;20141;-65
2022/04/01 06:48:47;;;;;;;6.85;5.10;;;;;;;5.07;59.74;100615.41;5056888;28;20044;-64
2022/04/01 06:51:32;;;;;;;6.93;5.25;;;;;;;5.05;59.78;100618.13;5060040;28;20410;-64
2022/04/01 06:54:17;;;;;;;5.03;4.40;;;;;;;5.03;59.58;100620.03;5059911;28;20516;-65
2022/04/01 06:56:52;;;;;;;6.20;4.78;;;;;;;5.03;59.65;100628.00;5057437;28;20048;-65
2022/04/01 06:59:20;;;;;;;6.93;4.40;;;;;;;5.05;59.58;100625.25;5073660;28;20494;-64
2022/04/01 07:01:46;;;;;;;5.43;4.22;;;;;;;5.06;59.60;100627.84;5074810;28;20036;-64
2022/04/01 07:04:14;;;;;;;6.93;4.50;;;;;;;5.10;59.73;100626.75;5056675;28;20046;-64
2022/04/01 07:06:41;;;;;;;7.85;4.85;;;;;;;5.11;59.81;100623.16;5073754;28;20051;-65
2022/04/01 07:09:08;;;;;;;7.07;4.47;;;;;;;5.11;59.65;100636.44;5074115;28;20375;-64
2022/04/01 07:11:34;;;;;;;6.80;3.97;;;;;;;5.12;59.54;100642.63;5074346;28;20439;-64
2022/04/01 07:14:02;;;;;;;7.75;4.45;;;;;;;5.13;59.64;100640.84;5056596;28;20058;-63
2022/04/01 07:16:28;;;;;;;7.13;4.72;;;;;;;5.15;59.55;100631.81;5040030;28;20136;-66
2022/04/01 07:18:56;;;;;;;5.80;4.00;;;;;;;5.17;59.63;100647.72;5074225;28;20046;-64
2022/04/01 07:21:23;;;;;;;5.28;4.00;;;;;;;5.15;59.45;100645.13;5056279;28;20063;-64
2022/04/01 07:23:50;;;;;;;7.20;4.55;;;;;;;5.18;59.34;100652.09;5074439;28;20040;-64
2022/04/01 07:26:16;;;;;;;5.88;4.68;;;;;;;5.21;59.48;100641.31;5055878;28;20055;-63
2022/04/01 07:28:43;;;;;;;6.20;4.28;;;;;;;5.20;59.53;100661.75;5073010;28;20094;-64
2022/04/01 07:34:23;;;;;;;5.78;4.20;;;;;;;5.21;59.43;100658.16;5072882;28;20091;-64
2022/04/01 07:36:50;;;;;;;5.50;4.20;;;;;;;5.24;59.28;100659.81;5074237;28;20114;-64
2022/04/01 07:39:16;;;;;;;4.38;3.63;;;;;;;5.24;59.40;100673.97;5073908;28;20040;-64
2022/04/01 07:41:43;;;;;;;5.38;3.58;;;;;;;5.24;59.41;100667.78;5055652;28;20501;-65
2022/04/01 07:44:09;;;;;;;5.85;3.90;;;;;;;5.25;59.41;100673.03;5055825;28;20056;-64
2022/04/01 07:46:36;;;;;;;4.80;3.63;;;;;;;5.24;59.40;100671.31;5074301;28;20048;-64
2022/04/01 07:49:03;;;;;;;10.18;4.70;;;;;;;5.25;59.41;100677.50;5073560;28;20045;-66
2022/04/01 07:51:31;;;;;;;6.43;4.28;;;;;;;5.25;59.33;100682.81;5055922;28;20052;-66
2022/04/01 07:53:58;;;;;;;5.57;3.90;;;;;;;5.24;59.09;100687.28;5055823;28;20402;-67
2022/04/01 07:56:30;;;;;;;10.20;4.22;;;;;;;5.23;59.20;100687.38;5055821;28;20131;-66
2022/04/01 07:58:58;;;;;;;6.28;4.13;;;;;;;5.24;59.42;100697.06;5055778;28;20049;-67
2022/04/01 08:01:28;;;;;;;5.70;3.72;;;;;;;5.25;59.41;100704.13;5072872;28;20045;-64
2022/04/01 08:03:56;;;;;;;6.05;4.07;;;;;;;5.28;59.44;100710.16;5073635;28;20045;-63
2022/04/01 08:06:23;;;;;;;6.18;3.80;;;;;;;5.30;59.40;100694.09;5073452;28;20037;-64
2022/04/01 08:08:49;;;;;;;6.95;4.00;;;;;;;5.29;59.50;100711.88;5073469;28;20175;-63
2022/04/01 08:11:16;;;;;;;5.28;3.70;;;;;;;5.29;59.14;100705.69;5055933;28;20141;-63
2022/04/01 08:13:42;;;;;;;6.18;3.80;;;;;;;5.30;59.43;100702.09;5073347;28;20036;-64
2022/04/01 08:16:11;;;;;;;7.78;4.03;;;;;;;5.29;59.32;100719.88;5073104;28;20098;-63
2022/04/01 08:18:38;;;;;;;5.18;3.83;;;;;;;5.29;59.27;100717.19;5055669;28;20044;-63
2022/04/01 08:21:04;;;;;;;4.97;4.15;;;;;;;5.29;59.23;100711.88;5073539;28;20406;-63
2022/04/01 08:23:36;;;;;;;4.38;3.60;;;;;;;5.29;59.24;100725.19;5074593;28;20048;-63
2022/04/01 08:26:07;;;;;;;6.15;3.47;;;;;;;5.29;59.30;100722.53;5073320;28;20048;-64
2022/04/01 08:28:35;;;;;;;4.57;3.42;;;;;;;5.30;58.97;100726.06;5073355;28;20405;-63
2022/04/01 08:31:03;;;;;;;3.85;3.00;;;;;;;5.29;59.33;100733.19;5072958;28;20494;-63
2022/04/01 08:33:30;;;;;;;4.20;3.10;;;;;;;5.30;59.44;100739.38;5073184;28;20562;-63
2022/04/01 08:35:56;;;;;;;5.00;3.38;;;;;;;5.30;59.27;100747.34;5072997;28;20048;-64
2022/04/01 08:38:23;;;;;;;4.10;2.85;;;;;;;5.30;59.25;100745.56;5072993;28;20041;-63
2022/04/01 08:40:50;;;;;;;7.18;3.92;;;;;;;5.32;59.17;100751.66;5073577;28;20037;-64
2022/04/01 08:43:31;;;;;;;5.00;3.00;;;;;;;5.33;59.07;100755.19;5073157;28;20542;-63
2022/04/01 08:46:00;;;;;;;5.25;3.10;;;;;;;5.35;59.10;100761.28;5073465;28;20067;-63
2022/04/01 08:48:27;;;;;;;4.30;2.88;;;;;;;5.36;59.05;100769.19;5054711;28;20074;-64
2022/04/01 08:50:54;;;;;;;4.97;2.88;;;;;;;5.38;59.13;100763.81;5055181;28;20040;-63
2022/04/01 08:53:22;;;;;;;4.68;3.10;;;;;;;5.40;59.00;100773.44;5073148;28;20040;-63
2022/04/01 08:55:51;;;;;;;5.78;3.00;;;;;;;5.43;59.05;100778.59;5073041;28;20033;-63
2022/04/01 08:58:19;;;;;;;4.47;3.17;;;;;;;5.46;58.99;100779.38;5075164;28;20064;-64
2022/04/01 09:00:47;;;;;;;4.25;2.45;;;;;;;5.47;58.90;100786.44;5078896;28;20452;-63
2022/04/01 09:03:15;;;;;;;4.10;2.55;;;;;;;5.48;58.86;100790.81;5073092;28;20044;-63
2022/04/01 09:05:45;;;;;;;5.70;2.50;;;;;;;5.50;58.99;100795.13;5054483;28;20105;-63
2022/04/01 09:08:16;;;;;;;3.92;2.92;;;;;;;5.54;58.96;100795.84;5072699;28;20040;-63
2022/04/01 09:10:56;;;;;;;3.70;2.55;;;;;;;5.58;58.92;100797.41;5073133;28;20509;-64
2022/04/01 09:13:25;;;;;;;3.70;2.53;;;;;;;5.60;58.82;100799.06;5072992;28;20040;-64
2022/04/01 09:15:52;;;;;;;3.55;2.58;;;;;;;5.64;58.75;100803.28;5072941;28;20124;-64
2022/04/01 09:18:32;;;;;;;4.82;2.58;;;;;;;5.66;58.61;100812.06;5055265;28;20127;-63
2022/04/01 09:20:59;;;;;;;4.00;2.65;;;;;;;5.69;58.74;100811.91;5072651;28;20033;-63
2022/04/01 09:23:26;;;;;;;4.28;2.95;;;;;;;5.71;58.74;100803.81;5072863;28;20047;-63
2022/04/01 09:25:54;;;;;;;3.60;2.90;;;;;;;5.74;58.53;100819.66;5073118;28;20569;-63
2022/04/01 09:28:25;;;;;;;4.45;2.70;;;;;;;5.77;58.58;100818.63;5076381;28;20494;-63
2022/04/01 09:31:06;;;;;;;3.70;2.60;;;;;;;5.79;58.48;100819.41;5076744;28;20044;-63
2022/04/01 09:33:54;;;;;;;3.03;2.33;;;;;;;5.82;58.38;100816.59;5076862;28;20039;-63
2022/04/01 09:36:26;;;;;;;3.47;2.55;;;;;;;5.83;58.27;100815.66;5076543;28;20127;-64
2022/04/01 09:38:53;;;;;;;4.40;2.40;;;;;;;5.84;58.29;100820.91;5076169;28;20041;-63
2022/04/01 09:41:19;;;;;;;3.78;2.40;;;;;;;5.86;58.23;100823.47;5076545;28;20044;-63
2022/04/01 09:44:17;;;;;;;3.33;2.50;;;;;;;5.88;58.35;100826.94;5076619;28;20040;-63
2022/04/01 09:46:52;;;;;;;4.28;2.70;;;;;;;5.91;58.29;100838.31;5076865;28;20066;-63
2022/04/01 09:49:36;;;;;;;4.65;2.80;;;;;;;5.92;58.17;100829.38;5058435;28;20049;-63
2022/04/01 09:52:09;;;;;;;3.92;2.50;;;;;;;5.93;58.28;100838.25;5076289;28;20052;-63
2022/04/01 09:54:50;;;;;;;7.47;3.10;;;;;;;5.93;58.12;100832.91;5075910;28;20048;-63
2022/04/01 09:57:19;;;;;;;3.33;2.30;;;;;;;5.95;58.07;100842.59;5076089;28;20048;-62
2022/04/01 09:59:48;;;;;;;3.33;2.60;;;;;;;5.96;58.11;100844.31;5076338;28;20127;-63
2022/04/01 10:02:15;;;;;;;4.78;2.53;;;;;;;5.99;58.09;100840.63;5074638;28;20055;-63
2022/04/01 10:04:41;;;;;;;6.50;3.33;;;;;;;6.01;58.00;100844.06;5057965;28;20040;-63
2022/04/01 10:07:09;;;;;;;5.00;3.10;;;;;;;6.02;58.03;100843.13;5075829;28;20050;-64
2022/04/01 10:09:40;;;;;;;4.72;2.78;;;;;;;6.03;57.93;100839.53;5057510;28;20039;-64
2022/04/01 10:12:29;;;;;;;4.50;2.88;;;;;;;6.07;58.06;100837.56;5060800;28;20052;-71
2022/04/01 10:14:58;;;;;;;6.32;3.25;;;;;;;6.07;57.87;100838.41;5057886;28;20505;-64
2022/04/01 10:17:45;;;;;;;5.30;3.42;;;;;;;6.09;57.88;100833.88;5057549;28;20045;-63
2022/04/01 10:20:13;;;;;;;6.40;3.03;;;;;;;6.11;57.85;100833.78;5074475;28;20048;-63
2022/04/01 10:22:41;;;;;;;4.50;3.67;;;;;;;6.12;57.71;100830.19;5074129;28;20045;-63
2022/04/01 10:25:27;;;;;;;4.05;3.30;;;;;;;6.11;57.73;100840.00;5041202;28;20468;-63
2022/04/01 10:27:55;;;;;;;5.72;3.20;;;;;;;6.16;57.74;100837.94;5057681;28;20051;-64
2022/04/01 10:30:25;;;;;;;5.35;3.80;;;;;;;6.18;57.67;100843.19;5075381;28;20123;-63
2022/04/01 10:32:52;;;;;;;7.10;3.63;;;;;;;6.20;57.62;100841.31;5075601;28;20123;-64
2022/04/01 10:35:22;;;;;;;7.13;3.58;;;;;;;6.21;57.52;100849.22;5075095;28;20049;-63
2022/04/01 10:38:07;;;;;;;5.85;4.10;;;;;;;6.23;57.47;100843.81;5074756;28;20048;-63
2022/04/01 10:40:36;;;;;;;4.53;3.40;;;;;;;6.25;57.38;100847.25;5075628;28;20072;-63
2022/04/01 10:43:11;;;;;;;6.13;3.67;;;;;;;6.26;57.43;100841.84;5057458;28;20044;-63
2022/04/01 10:45:39;;;;;;;6.63;3.45;;;;;;;6.28;57.44;100845.28;5075316;28;20102;-64
2022/04/01 10:54:00;;;;;;;6.07;3.92;;;;;;;6.30;57.10;100851.41;5054909;28;19975;-63
2022/04/01 10:56:32;;;;;;;5.05;3.65;;;;;;;6.30;57.10;100862.06;5054862;28;20485;-63
2022/04/01 10:59:15;;;;;;;7.80;6.68;;;;;;;6.30;57.04;100862.06;5037330;28;20065;-63
2022/04/01 11:01:51;;;;;;;5.50;4.80;;;;;;;6.33;57.07;100855.72;5054395;28;20080;-64
2022/04/01 11:04:18;;;;;;;4.93;4.15;;;;;;;6.38;57.06;100856.31;5055115;28;20144;-63
2022/04/01 11:07:14;;;;;;;6.32;4.20;;;;;;;6.45;57.26;100856.84;5069203;28;20067;-63
2022/04/01 11:09:46;;;;;;;4.88;4.15;;;;;;;6.52;57.23;100864.44;5070530;28;20119;-64
2022/04/01 11:12:16;;;;;;;4.80;3.97;;;;;;;6.58;57.11;100860.59;5086759;28;20041;-63
2022/04/01 11:17:36;;;;;;;7.88;4.47;;;;;;;6.64;57.00;100869.13;5074380;28;20094;-63
2022/04/01 11:20:10;;;;;;;5.38;4.13;;;;;;;6.66;56.97;100866.38;5074336;28;20036;-63
2022/04/01 11:22:56;;;;;;;5.25;4.22;;;;;;;6.70;56.84;100873.28;5056406;28;20045;-63
2022/04/01 11:25:23;;;;;;;5.65;4.18;;;;;;;6.74;56.85;100876.66;5074115;28;20071;-63
2022/04/01 11:27:57;;;;;;;5.22;3.95;;;;;;;6.76;56.78;100885.44;5074235;28;20139;-64
2022/04/01 11:30:26;;;;;;;7.50;4.00;;;;;;;6.79;56.53;100880.78;5074543;28;20051;-63
2022/04/01 11:33:01;;;;;;;5.38;4.15;;;;;;;6.82;56.48;100885.97;5074009;28;20079;-64
2022/04/01 11:35:35;;;;;;;7.43;4.00;;;;;;;6.85;56.54;100887.59;5073106;28;20499;-64
2022/04/01 11:38:02;;;;;;;6.13;4.15;;;;;;;6.86;56.62;100882.19;5073121;28;20047;-64
2022/04/01 11:40:32;;;;;;;6.38;4.55;;;;;;;6.87;56.39;100888.38;5074022;28;20037;-63
2022/04/01 11:43:04;;;;;;;6.30;3.92;;;;;;;6.81;56.28;100878.91;5073805;28;20032;-63
2022/04/01 11:45:57;;;;;;;5.32;3.83;;;;;;;6.76;56.11;100882.78;5073989;28;20502;-63
2022/04/01 11:48:31;;;;;;;6.75;4.38;;;;;;;6.74;56.02;100877.50;5073523;28;20517;-63
2022/04/01 11:51:24;;;;;;;5.80;4.07;;;;;;;6.72;56.03;100879.41;5055276;28;20410;-63
2022/04/01 11:53:53;;;;;;;8.30;4.03;;;;;;;6.70;55.85;100881.28;5073309;28;20064;-64
2022/04/01 11:56:26;;;;;;;6.25;4.40;;;;;;;6.69;56.04;100890.25;5073544;28;20093;-64
2022/04/01 11:59:05;;;;;;;7.72;4.60;;;;;;;6.66;55.99;100882.38;5073867;28;20041;-64
2022/04/01 12:01:54;;;;;;;6.38;4.03;;;;;;;6.65;56.05;100883.31;5055935;28;20048;-64
2022/04/01 12:04:28;;;;;;;6.88;4.57;;;;;;;6.65;56.02;100894.84;5073513;28;20052;-64
2022/04/01 12:09:44;;;;;;;5.88;4.32;;;;;;;6.62;55.88;100896.81;5073468;28;20045;-64
2022/04/01 12:12:11;;;;;;;9.68;4.90;;;;;;;6.63;55.76;100890.53;5073495;28;20047;-64
2022/04/01 12:14:39;;;;;;;6.03;4.57;;;;;;;6.61;55.79;100892.44;5073537;28;20037;-64
2022/04/01 12:17:08;;;;;;;6.15;4.40;;;;;;;6.60;55.71;100904.06;5055328;28;20141;-63